sensor_id;sensor_type;location;lat;lon;timestamp;temperature;humidity
1129;DHT22;553;51.038;7.216;2023-03-01T00:01:19;0.40;94.10
1129;DHT22;553;51.038;7.216;2023-03-01T00:03:46;0.30;94.20
1129;DHT22;553;51.038;7.216;2023-03-01T00:06:13;0.40;94.40
1129;DHT22;553;51.038;7.216;2023-03-01T00:08:40;0.30;94.10
1129;DHT22;553;51.038;7.216;2023-03-01T00:11:12;0.40;94.00
1129;DHT22;553;51.038;7.216;2023-03-01T00:13:40;0.40;93.80
1129;DHT22;553;51.038;7.216;2023-03-01T00:16:10;0.40;93.90
1129;DHT22;553;51.038;7.216;2023-03-01T00:18:37;0.30;93.90
1129;DHT22;553;51.038;7.216;2023-03-01T00:21:04;0.30;94.00
1129;DHT22;553;51.038;7.216;2023-03-01T00:23:31;0.30;93.80
1129;DHT22;553;51.038;7.216;2023-03-01T00:25:59;0.30;94.00
1129;DHT22;553;51.038;7.216;2023-03-01T00:28:26;0.20;94.10
1129;DHT22;553;51.038;7.216;2023-03-01T00:30:52;0.30;94.00
1129;DHT22;553;51.038;7.216;2023-03-01T00:33:19;0.30;94.00
1129;DHT22;553;51.038;7.216;2023-03-01T00:35:46;0.30;93.90
1129;DHT22;553;51.038;7.216;2023-03-01T00:38:13;0.30;93.80
1129;DHT22;553;51.038;7.216;2023-03-01T00:40:40;0.30;93.60
1129;DHT22;553;51.038;7.216;2023-03-01T00:43:08;0.30;93.60
1129;DHT22;553;51.038;7.216;2023-03-01T00:45:35;0.30;93.50
1129;DHT22;553;51.038;7.216;2023-03-01T00:48:02;0.30;93.70
1129;DHT22;553;51.038;7.216;2023-03-01T00:50:29;0.30;93.60
1129;DHT22;553;51.038;7.216;2023-03-01T00:52:56;0.40;93.50
1129;DHT22;553;51.038;7.216;2023-03-01T00:55:23;0.40;93.40
1129;DHT22;553;51.038;7.216;2023-03-01T00:57:50;0.40;93.40
1129;DHT22;553;51.038;7.216;2023-03-01T01:00:18;0.40;93.30
1129;DHT22;553;51.038;7.216;2023-03-01T01:02:46;0.40;93.20
1129;DHT22;553;51.038;7.216;2023-03-01T01:05:14;0.30;93.30
1129;DHT22;553;51.038;7.216;2023-03-01T01:07:40;0.30;93.30
1129;DHT22;553;51.038;7.216;2023-03-01T01:10:08;0.40;93.50
1129;DHT22;553;51.038;7.216;2023-03-01T01:12:34;0.30;93.40
1129;DHT22;553;51.038;7.216;2023-03-01T01:15:01;0.40;93.20
1129;DHT22;553;51.038;7.216;2023-03-01T01:17:28;0.40;93.40
1129;DHT22;553;51.038;7.216;2023-03-01T01:19:55;0.40;93.10
1129;DHT22;553;51.038;7.216;2023-03-01T01:22:22;0.30;93.10
1129;DHT22;553;51.038;7.216;2023-03-01T01:24:49;0.30;93.20
1129;DHT22;553;51.038;7.216;2023-03-01T01:27:15;0.30;93.30
1129;DHT22;553;51.038;7.216;2023-03-01T01:29:42;0.30;93.40
1129;DHT22;553;51.038;7.216;2023-03-01T01:32:09;0.30;93.20
1129;DHT22;553;51.038;7.216;2023-03-01T01:34:36;0.30;93.20
1129;DHT22;553;51.038;7.216;2023-03-01T01:37:03;0.30;93.10
1129;DHT22;553;51.038;7.216;2023-03-01T01:39:35;0.30;93.10
1129;DHT22;553;51.038;7.216;2023-03-01T01:42:02;0.30;93.00
1129;DHT22;553;51.038;7.216;2023-03-01T01:44:29;0.30;93.00
1129;DHT22;553;51.038;7.216;2023-03-01T01:47:04;0.40;93.10
1129;DHT22;553;51.038;7.216;2023-03-01T01:49:41;0.40;92.90
1129;DHT22;553;51.038;7.216;2023-03-01T01:52:11;0.30;92.90
1129;DHT22;553;51.038;7.216;2023-03-01T01:54:51;0.20;93.00
1129;DHT22;553;51.038;7.216;2023-03-01T01:57:22;0.30;93.00
1129;DHT22;553;51.038;7.216;2023-03-01T01:59:53;0.30;92.90
1129;DHT22;553;51.038;7.216;2023-03-01T02:02:20;0.30;92.80
1129;DHT22;553;51.038;7.216;2023-03-01T02:04:48;0.20;93.00
1129;DHT22;553;51.038;7.216;2023-03-01T02:07:23;0.30;93.00
1129;DHT22;553;51.038;7.216;2023-03-01T02:09:52;0.20;93.30
1129;DHT22;553;51.038;7.216;2023-03-01T02:12:23;0.30;93.10
1129;DHT22;553;51.038;7.216;2023-03-01T02:14:50;0.20;92.90
1129;DHT22;553;51.038;7.216;2023-03-01T02:17:17;0.20;93.30
1129;DHT22;553;51.038;7.216;2023-03-01T02:22:43;0.00;93.30
1129;DHT22;553;51.038;7.216;2023-03-01T02:28:10;-0.10;94.10
1129;DHT22;553;51.038;7.216;2023-03-01T02:30:39;-0.10;94.10
1129;DHT22;553;51.038;7.216;2023-03-01T02:33:26;-0.10;94.30
1129;DHT22;553;51.038;7.216;2023-03-01T02:35:54;-0.10;94.30
1129;DHT22;553;51.038;7.216;2023-03-01T02:38:22;0.00;94.10
1129;DHT22;553;51.038;7.216;2023-03-01T02:40:51;0.00;93.90
1129;DHT22;553;51.038;7.216;2023-03-01T02:43:19;0.00;94.00
1129;DHT22;553;51.038;7.216;2023-03-01T02:45:53;-0.10;94.00
1129;DHT22;553;51.038;7.216;2023-03-01T02:48:20;-0.10;94.20
1129;DHT22;553;51.038;7.216;2023-03-01T02:50:59;-0.10;94.20
1129;DHT22;553;51.038;7.216;2023-03-01T02:56:36;-0.20;94.60
1129;DHT22;553;51.038;7.216;2023-03-01T02:59:04;-0.20;94.80
1129;DHT22;553;51.038;7.216;2023-03-01T03:01:31;-0.20;94.70
1129;DHT22;553;51.038;7.216;2023-03-01T03:04:08;-0.20;94.50
1129;DHT22;553;51.038;7.216;2023-03-01T03:06:37;-0.20;94.50
1129;DHT22;553;51.038;7.216;2023-03-01T03:09:04;-0.20;94.40
1129;DHT22;553;51.038;7.216;2023-03-01T03:11:31;-0.20;94.20
1129;DHT22;553;51.038;7.216;2023-03-01T03:13:59;-0.10;94.20
1129;DHT22;553;51.038;7.216;2023-03-01T03:16:26;-0.20;94.10
1129;DHT22;553;51.038;7.216;2023-03-01T03:18:53;-0.20;94.20
1129;DHT22;553;51.038;7.216;2023-03-01T03:21:20;-0.30;94.40
1129;DHT22;553;51.038;7.216;2023-03-01T03:23:46;-0.30;94.50
1129;DHT22;553;51.038;7.216;2023-03-01T03:26:13;-0.30;94.50
1129;DHT22;553;51.038;7.216;2023-03-01T03:28:41;-0.30;94.50
1129;DHT22;553;51.038;7.216;2023-03-01T03:31:08;-0.30;94.70
1129;DHT22;553;51.038;7.216;2023-03-01T03:33:35;-0.30;94.60
1129;DHT22;553;51.038;7.216;2023-03-01T03:36:02;-0.30;94.80
1129;DHT22;553;51.038;7.216;2023-03-01T03:38:29;-0.40;95.00
1129;DHT22;553;51.038;7.216;2023-03-01T03:41:02;-0.30;95.10
1129;DHT22;553;51.038;7.216;2023-03-01T03:43:31;-0.30;94.70
1129;DHT22;553;51.038;7.216;2023-03-01T03:45:58;-0.40;94.70
1129;DHT22;553;51.038;7.216;2023-03-01T03:48:26;-0.40;94.90
1129;DHT22;553;51.038;7.216;2023-03-01T03:50:54;-0.50;95.20
1129;DHT22;553;51.038;7.216;2023-03-01T03:53:24;-0.50;95.40
1129;DHT22;553;51.038;7.216;2023-03-01T03:55:52;-0.50;95.40
1129;DHT22;553;51.038;7.216;2023-03-01T03:58:20;-0.50;95.40
1129;DHT22;553;51.038;7.216;2023-03-01T04:00:51;-0.50;95.30
1129;DHT22;553;51.038;7.216;2023-03-01T04:03:19;-0.60;95.40
1129;DHT22;553;51.038;7.216;2023-03-01T04:05:47;-0.50;95.40
1129;DHT22;553;51.038;7.216;2023-03-01T04:08:14;-0.60;95.40
1129;DHT22;553;51.038;7.216;2023-03-01T04:10:43;-0.70;95.50
1129;DHT22;553;51.038;7.216;2023-03-01T04:13:12;-0.80;95.60
1129;DHT22;553;51.038;7.216;2023-03-01T04:15:40;-0.90;95.90
1129;DHT22;553;51.038;7.216;2023-03-01T04:18:08;-0.90;96.30
1129;DHT22;553;51.038;7.216;2023-03-01T04:20:35;-0.90;96.30
1129;DHT22;553;51.038;7.216;2023-03-01T04:23:06;-0.90;96.40
1129;DHT22;553;51.038;7.216;2023-03-01T04:25:53;-0.90;96.60
1129;DHT22;553;51.038;7.216;2023-03-01T04:28:40;-1.00;96.60
1129;DHT22;553;51.038;7.216;2023-03-01T04:31:15;-1.00;96.60
1129;DHT22;553;51.038;7.216;2023-03-01T04:33:51;-1.00;96.80
1129;DHT22;553;51.038;7.216;2023-03-01T04:36:20;-1.10;97.00
1129;DHT22;553;51.038;7.216;2023-03-01T04:38:47;-1.10;97.50
1129;DHT22;553;51.038;7.216;2023-03-01T04:41:16;-1.20;97.70
1129;DHT22;553;51.038;7.216;2023-03-01T04:43:43;-1.20;97.80
1129;DHT22;553;51.038;7.216;2023-03-01T04:46:15;-1.20;97.90
1129;DHT22;553;51.038;7.216;2023-03-01T04:48:43;-1.20;98.00
1129;DHT22;553;51.038;7.216;2023-03-01T04:51:11;-1.30;98.10
1129;DHT22;553;51.038;7.216;2023-03-01T04:53:42;-1.30;98.10
1129;DHT22;553;51.038;7.216;2023-03-01T04:56:09;-1.30;98.30
1129;DHT22;553;51.038;7.216;2023-03-01T04:58:36;-1.30;98.30
1129;DHT22;553;51.038;7.216;2023-03-01T05:01:11;-1.30;98.40
1129;DHT22;553;51.038;7.216;2023-03-01T05:03:43;-1.40;98.50
1129;DHT22;553;51.038;7.216;2023-03-01T05:06:10;-1.40;98.50
1129;DHT22;553;51.038;7.216;2023-03-01T05:08:38;-1.30;98.50
1129;DHT22;553;51.038;7.216;2023-03-01T05:11:05;-1.30;98.40
1129;DHT22;553;51.038;7.216;2023-03-01T05:13:32;-1.30;98.40
1129;DHT22;553;51.038;7.216;2023-03-01T05:16:00;-1.30;98.30
1129;DHT22;553;51.038;7.216;2023-03-01T05:18:29;-1.30;98.20
1129;DHT22;553;51.038;7.216;2023-03-01T05:21:06;-1.30;98.10
1129;DHT22;553;51.038;7.216;2023-03-01T05:23:34;-1.20;98.00
1129;DHT22;553;51.038;7.216;2023-03-01T05:26:02;-1.20;97.90
1129;DHT22;553;51.038;7.216;2023-03-01T05:28:32;-1.10;97.60
1129;DHT22;553;51.038;7.216;2023-03-01T05:30:58;-1.10;97.60
1129;DHT22;553;51.038;7.216;2023-03-01T05:33:26;-1.20;97.60
1129;DHT22;553;51.038;7.216;2023-03-01T05:35:53;-1.20;97.60
1129;DHT22;553;51.038;7.216;2023-03-01T05:38:21;-1.10;97.70
1129;DHT22;553;51.038;7.216;2023-03-01T05:40:48;-1.10;97.70
1129;DHT22;553;51.038;7.216;2023-03-01T05:43:16;-1.20;97.80
1129;DHT22;553;51.038;7.216;2023-03-01T05:45:44;-1.20;97.80
1129;DHT22;553;51.038;7.216;2023-03-01T05:48:12;-1.20;97.80
1129;DHT22;553;51.038;7.216;2023-03-01T05:50:43;-1.20;97.90
1129;DHT22;553;51.038;7.216;2023-03-01T05:53:19;-1.20;97.90
1129;DHT22;553;51.038;7.216;2023-03-01T05:55:47;-1.20;97.90
1129;DHT22;553;51.038;7.216;2023-03-01T05:58:16;-1.20;97.90
1129;DHT22;553;51.038;7.216;2023-03-01T06:00:45;-1.20;97.80
1129;DHT22;553;51.038;7.216;2023-03-01T06:03:14;-1.10;97.80
1129;DHT22;553;51.038;7.216;2023-03-01T06:05:41;-1.10;97.70
1129;DHT22;553;51.038;7.216;2023-03-01T06:08:09;-1.10;97.70
1129;DHT22;553;51.038;7.216;2023-03-01T06:10:36;-1.10;97.60
1129;DHT22;553;51.038;7.216;2023-03-01T06:13:04;-1.00;97.50
1129;DHT22;553;51.038;7.216;2023-03-01T06:15:31;-1.00;97.40
1129;DHT22;553;51.038;7.216;2023-03-01T06:17:58;-1.00;97.30
1129;DHT22;553;51.038;7.216;2023-03-01T06:20:27;-1.00;97.20
1129;DHT22;553;51.038;7.216;2023-03-01T06:22:54;-1.00;97.20
1129;DHT22;553;51.038;7.216;2023-03-01T06:25:23;-1.00;97.30
1129;DHT22;553;51.038;7.216;2023-03-01T06:27:50;-0.90;97.20
1129;DHT22;553;51.038;7.216;2023-03-01T06:30:20;-0.90;97.10
1129;DHT22;553;51.038;7.216;2023-03-01T06:32:48;-1.00;97.00
1129;DHT22;553;51.038;7.216;2023-03-01T06:35:16;-1.00;97.00
1129;DHT22;553;51.038;7.216;2023-03-01T06:37:47;-0.90;97.10
1129;DHT22;553;51.038;7.216;2023-03-01T06:40:14;-0.90;96.90
1129;DHT22;553;51.038;7.216;2023-03-01T06:42:43;-0.90;96.70
1129;DHT22;553;51.038;7.216;2023-03-01T06:45:10;-0.90;96.70
1129;DHT22;553;51.038;7.216;2023-03-01T06:47:38;-1.00;97.20
1129;DHT22;553;51.038;7.216;2023-03-01T06:50:05;-0.90;97.20
1129;DHT22;553;51.038;7.216;2023-03-01T06:52:32;-0.90;97.10
1129;DHT22;553;51.038;7.216;2023-03-01T06:54:59;-0.90;97.00
1129;DHT22;553;51.038;7.216;2023-03-01T06:57:26;-0.90;96.80
1129;DHT22;553;51.038;7.216;2023-03-01T06:59:53;-0.80;96.70
1129;DHT22;553;51.038;7.216;2023-03-01T07:02:20;-0.80;96.60
1129;DHT22;553;51.038;7.216;2023-03-01T07:04:49;-0.70;96.40
1129;DHT22;553;51.038;7.216;2023-03-01T07:07:16;-0.90;96.50
1129;DHT22;553;51.038;7.216;2023-03-01T07:09:45;-0.80;96.60
1129;DHT22;553;51.038;7.216;2023-03-01T07:12:12;-0.70;96.60
1129;DHT22;553;51.038;7.216;2023-03-01T07:14:38;-0.70;96.50
1129;DHT22;553;51.038;7.216;2023-03-01T07:17:05;-0.70;96.60
1129;DHT22;553;51.038;7.216;2023-03-01T07:19:32;-0.70;96.70
1129;DHT22;553;51.038;7.216;2023-03-01T07:21:58;-0.80;96.80
1129;DHT22;553;51.038;7.216;2023-03-01T07:24:25;-0.80;97.10
1129;DHT22;553;51.038;7.216;2023-03-01T07:26:52;-0.70;97.20
1129;DHT22;553;51.038;7.216;2023-03-01T07:29:19;-0.70;97.20
1129;DHT22;553;51.038;7.216;2023-03-01T07:31:46;-0.70;97.20
1129;DHT22;553;51.038;7.216;2023-03-01T07:34:13;-0.70;96.90
1129;DHT22;553;51.038;7.216;2023-03-01T07:36:40;-0.60;97.20
1129;DHT22;553;51.038;7.216;2023-03-01T07:39:12;-0.60;96.60
1129;DHT22;553;51.038;7.216;2023-03-01T07:41:39;-0.50;96.60
1129;DHT22;553;51.038;7.216;2023-03-01T07:44:06;-0.40;96.30
1129;DHT22;553;51.038;7.216;2023-03-01T07:46:32;-0.30;96.10
1129;DHT22;553;51.038;7.216;2023-03-01T07:48:59;-0.30;95.70
1129;DHT22;553;51.038;7.216;2023-03-01T07:51:26;-0.20;95.50
1129;DHT22;553;51.038;7.216;2023-03-01T07:53:53;-0.10;95.60
1129;DHT22;553;51.038;7.216;2023-03-01T07:56:20;-0.10;95.40
1129;DHT22;553;51.038;7.216;2023-03-01T07:58:48;0.00;95.10
1129;DHT22;553;51.038;7.216;2023-03-01T08:01:18;0.20;94.90
1129;DHT22;553;51.038;7.216;2023-03-01T08:03:45;0.20;94.70
1129;DHT22;553;51.038;7.216;2023-03-01T08:06:14;0.20;94.30
1129;DHT22;553;51.038;7.216;2023-03-01T08:08:42;0.30;94.30
1129;DHT22;553;51.038;7.216;2023-03-01T08:11:11;0.30;94.10
1129;DHT22;553;51.038;7.216;2023-03-01T08:13:38;0.40;94.00
1129;DHT22;553;51.038;7.216;2023-03-01T08:16:12;0.50;94.00
1129;DHT22;553;51.038;7.216;2023-03-01T08:18:39;0.50;93.50
1129;DHT22;553;51.038;7.216;2023-03-01T08:21:12;0.60;93.30
1129;DHT22;553;51.038;7.216;2023-03-01T08:23:39;0.60;93.30
1129;DHT22;553;51.038;7.216;2023-03-01T08:26:15;0.70;93.50
1129;DHT22;553;51.038;7.216;2023-03-01T08:28:42;0.90;93.40
1129;DHT22;553;51.038;7.216;2023-03-01T08:31:22;1.10;92.80
1129;DHT22;553;51.038;7.216;2023-03-01T08:33:52;1.40;91.90
1129;DHT22;553;51.038;7.216;2023-03-01T08:36:27;1.80;90.70
1129;DHT22;553;51.038;7.216;2023-03-01T08:38:54;2.20;88.80
1129;DHT22;553;51.038;7.216;2023-03-01T08:41:21;2.50;87.60
1129;DHT22;553;51.038;7.216;2023-03-01T08:43:48;2.90;86.30
1129;DHT22;553;51.038;7.216;2023-03-01T08:46:16;3.10;85.50
1129;DHT22;553;51.038;7.216;2023-03-01T08:48:42;3.50;84.90
1129;DHT22;553;51.038;7.216;2023-03-01T08:51:13;3.70;83.70
1129;DHT22;553;51.038;7.216;2023-03-01T08:53:41;4.00;83.40
1129;DHT22;553;51.038;7.216;2023-03-01T08:56:08;4.30;82.20
1129;DHT22;553;51.038;7.216;2023-03-01T08:58:36;4.60;81.60
1129;DHT22;553;51.038;7.216;2023-03-01T09:01:11;4.80;81.30
1129;DHT22;553;51.038;7.216;2023-03-01T09:03:38;5.20;80.30
1129;DHT22;553;51.038;7.216;2023-03-01T09:06:06;5.30;79.00
1129;DHT22;553;51.038;7.216;2023-03-01T09:08:38;5.30;78.30
1129;DHT22;553;51.038;7.216;2023-03-01T09:11:07;5.40;78.40
1129;DHT22;553;51.038;7.216;2023-03-01T09:13:35;5.40;78.10
1129;DHT22;553;51.038;7.216;2023-03-01T09:16:04;5.40;78.40
1129;DHT22;553;51.038;7.216;2023-03-01T09:18:31;5.60;78.80
1129;DHT22;553;51.038;7.216;2023-03-01T09:21:06;5.80;77.50
1129;DHT22;553;51.038;7.216;2023-03-01T09:23:41;5.90;77.40
1129;DHT22;553;51.038;7.216;2023-03-01T09:26:11;5.90;76.80
1129;DHT22;553;51.038;7.216;2023-03-01T09:28:39;5.90;77.10
1129;DHT22;553;51.038;7.216;2023-03-01T09:31:07;6.30;76.50
1129;DHT22;553;51.038;7.216;2023-03-01T09:33:34;6.40;76.10
1129;DHT22;553;51.038;7.216;2023-03-01T09:36:07;6.20;75.50
1129;DHT22;553;51.038;7.216;2023-03-01T09:38:34;6.30;76.10
1129;DHT22;553;51.038;7.216;2023-03-01T09:41:01;6.40;75.30
1129;DHT22;553;51.038;7.216;2023-03-01T09:43:50;6.30;75.30
1129;DHT22;553;51.038;7.216;2023-03-01T09:46:23;6.50;75.50
1129;DHT22;553;51.038;7.216;2023-03-01T09:49:01;6.80;75.70
1129;DHT22;553;51.038;7.216;2023-03-01T09:51:33;6.90;74.50
1129;DHT22;553;51.038;7.216;2023-03-01T09:54:04;6.80;74.10
1129;DHT22;553;51.038;7.216;2023-03-01T10:00:01;7.00;74.00
1129;DHT22;553;51.038;7.216;2023-03-01T10:02:41;6.90;73.70
1129;DHT22;553;51.038;7.216;2023-03-01T10:10:47;7.40;73.50
1129;DHT22;553;51.038;7.216;2023-03-01T10:13:46;7.50;73.40
1129;DHT22;553;51.038;7.216;2023-03-01T10:16:21;7.40;72.50
1129;DHT22;553;51.038;7.216;2023-03-01T10:18:55;7.40;73.80
1129;DHT22;553;51.038;7.216;2023-03-01T10:21:22;7.60;73.20
1129;DHT22;553;51.038;7.216;2023-03-01T10:23:50;7.60;72.80
1129;DHT22;553;51.038;7.216;2023-03-01T10:26:30;7.60;72.70
1129;DHT22;553;51.038;7.216;2023-03-01T10:29:07;7.50;73.00
1129;DHT22;553;51.038;7.216;2023-03-01T10:31:43;7.40;72.90
1129;DHT22;553;51.038;7.216;2023-03-01T10:34:19;7.30;72.60
1129;DHT22;553;51.038;7.216;2023-03-01T10:37:16;7.20;73.70
1129;DHT22;553;51.038;7.216;2023-03-01T10:42:46;7.70;70.90
1129;DHT22;553;51.038;7.216;2023-03-01T10:48:04;7.90;70.50
1129;DHT22;553;51.038;7.216;2023-03-01T10:50:31;8.00;70.50
1129;DHT22;553;51.038;7.216;2023-03-01T10:53:03;8.30;70.20
1129;DHT22;553;51.038;7.216;2023-03-01T10:55:40;8.40;68.80
1129;DHT22;553;51.038;7.216;2023-03-01T10:58:18;8.40;67.90
1129;DHT22;553;51.038;7.216;2023-03-01T11:00:51;8.20;68.00
1129;DHT22;553;51.038;7.216;2023-03-01T11:03:30;8.20;68.40
1129;DHT22;553;51.038;7.216;2023-03-01T11:06:12;8.20;68.10
1129;DHT22;553;51.038;7.216;2023-03-01T11:08:48;8.00;67.30
1129;DHT22;553;51.038;7.216;2023-03-01T11:11:31;7.90;67.90
1129;DHT22;553;51.038;7.216;2023-03-01T11:16:35;7.90;68.30
1129;DHT22;553;51.038;7.216;2023-03-01T11:24:17;8.30;69.70
1129;DHT22;553;51.038;7.216;2023-03-01T11:26:50;8.50;69.60
1129;DHT22;553;51.038;7.216;2023-03-01T11:29:41;8.50;67.90
1129;DHT22;553;51.038;7.216;2023-03-01T11:32:15;8.40;66.90
1129;DHT22;553;51.038;7.216;2023-03-01T11:34:51;8.20;67.30
1129;DHT22;553;51.038;7.216;2023-03-01T11:40:15;8.30;68.40
1129;DHT22;553;51.038;7.216;2023-03-01T11:51:42;8.30;66.50
1129;DHT22;553;51.038;7.216;2023-03-01T11:59:57;8.40;66.90
1129;DHT22;553;51.038;7.216;2023-03-01T12:02:46;8.40;67.20
1129;DHT22;553;51.038;7.216;2023-03-01T12:05:32;8.60;67.10
1129;DHT22;553;51.038;7.216;2023-03-01T12:14:13;8.50;66.40
1129;DHT22;553;51.038;7.216;2023-03-01T12:22:35;8.60;66.60
1129;DHT22;553;51.038;7.216;2023-03-01T12:33:21;9.40;65.50
1129;DHT22;553;51.038;7.216;2023-03-01T12:50:52;8.50;67.50
1129;DHT22;553;51.038;7.216;2023-03-01T12:53:23;8.30;68.60
1129;DHT22;553;51.038;7.216;2023-03-01T12:55:54;8.20;69.20
1129;DHT22;553;51.038;7.216;2023-03-01T12:58:46;8.20;70.30
1129;DHT22;553;51.038;7.216;2023-03-01T13:07:04;9.10;68.30
1129;DHT22;553;51.038;7.216;2023-03-01T13:15:33;8.30;68.90
1129;DHT22;553;51.038;7.216;2023-03-01T13:33:57;8.20;67.80
1129;DHT22;553;51.038;7.216;2023-03-01T13:38:55;8.40;67.70
1129;DHT22;553;51.038;7.216;2023-03-01T13:46:51;8.90;67.40
1129;DHT22;553;51.038;7.216;2023-03-01T13:49:22;8.60;67.40
1129;DHT22;553;51.038;7.216;2023-03-01T13:51:51;8.50;67.70
1129;DHT22;553;51.038;7.216;2023-03-01T13:54:26;8.40;68.40
1129;DHT22;553;51.038;7.216;2023-03-01T13:56:55;8.30;69.10
1129;DHT22;553;51.038;7.216;2023-03-01T13:59:22;8.30;69.80
1129;DHT22;553;51.038;7.216;2023-03-01T14:01:58;8.30;71.20
1129;DHT22;553;51.038;7.216;2023-03-01T14:04:26;8.20;70.50
1129;DHT22;553;51.038;7.216;2023-03-01T14:07:19;8.20;70.20
1129;DHT22;553;51.038;7.216;2023-03-01T14:09:53;8.10;72.20
1129;DHT22;553;51.038;7.216;2023-03-01T14:12:34;8.20;72.40
1129;DHT22;553;51.038;7.216;2023-03-01T14:15:27;8.10;74.10
1129;DHT22;553;51.038;7.216;2023-03-01T14:20:27;8.30;74.50
1129;DHT22;553;51.038;7.216;2023-03-01T14:22:56;8.30;74.30
1129;DHT22;553;51.038;7.216;2023-03-01T14:25:32;8.20;74.70
1129;DHT22;553;51.038;7.216;2023-03-01T14:28:15;8.00;74.90
1129;DHT22;553;51.038;7.216;2023-03-01T14:30:51;8.00;75.10
1129;DHT22;553;51.038;7.216;2023-03-01T14:33:30;7.80;75.10
1129;DHT22;553;51.038;7.216;2023-03-01T14:38:41;7.70;75.90
1129;DHT22;553;51.038;7.216;2023-03-01T14:41:20;7.70;75.50
1129;DHT22;553;51.038;7.216;2023-03-01T14:43:50;7.80;75.70
1129;DHT22;553;51.038;7.216;2023-03-01T14:49:09;7.80;75.10
1129;DHT22;553;51.038;7.216;2023-03-01T14:51:41;7.80;75.30
1129;DHT22;553;51.038;7.216;2023-03-01T14:54:26;7.70;74.90
1129;DHT22;553;51.038;7.216;2023-03-01T14:56:58;7.70;75.00
1129;DHT22;553;51.038;7.216;2023-03-01T14:59:26;7.60;75.20
1129;DHT22;553;51.038;7.216;2023-03-01T15:01:55;7.50;75.10
1129;DHT22;553;51.038;7.216;2023-03-01T15:04:23;7.40;75.00
1129;DHT22;553;51.038;7.216;2023-03-01T15:06:54;7.30;75.30
1129;DHT22;553;51.038;7.216;2023-03-01T15:09:22;7.40;75.60
1129;DHT22;553;51.038;7.216;2023-03-01T15:11:49;7.40;75.80
1129;DHT22;553;51.038;7.216;2023-03-01T15:14:45;7.50;75.30
1129;DHT22;553;51.038;7.216;2023-03-01T15:17:33;7.40;75.20
1129;DHT22;553;51.038;7.216;2023-03-01T15:20:13;7.50;75.10
1129;DHT22;553;51.038;7.216;2023-03-01T15:22:46;7.50;75.00
1129;DHT22;553;51.038;7.216;2023-03-01T15:25:17;7.50;74.70
1129;DHT22;553;51.038;7.216;2023-03-01T15:27:49;7.40;75.20
1129;DHT22;553;51.038;7.216;2023-03-01T15:30:22;7.40;74.80
1129;DHT22;553;51.038;7.216;2023-03-01T15:35:50;7.30;73.90
1129;DHT22;553;51.038;7.216;2023-03-01T15:41:45;7.40;74.60
1129;DHT22;553;51.038;7.216;2023-03-01T15:44:48;7.50;74.60
1129;DHT22;553;51.038;7.216;2023-03-01T15:49:54;7.40;74.10
1129;DHT22;553;51.038;7.216;2023-03-01T15:52:35;7.40;74.80
1129;DHT22;553;51.038;7.216;2023-03-01T15:55:14;7.30;74.90
1129;DHT22;553;51.038;7.216;2023-03-01T15:57:42;7.20;75.30
1129;DHT22;553;51.038;7.216;2023-03-01T16:00:13;7.20;75.50
1129;DHT22;553;51.038;7.216;2023-03-01T16:02:41;7.20;75.20
1129;DHT22;553;51.038;7.216;2023-03-01T16:05:25;7.10;75.20
1129;DHT22;553;51.038;7.216;2023-03-01T16:07:53;7.20;75.60
1129;DHT22;553;51.038;7.216;2023-03-01T16:10:20;7.10;75.30
1129;DHT22;553;51.038;7.216;2023-03-01T16:12:48;7.10;74.80
1129;DHT22;553;51.038;7.216;2023-03-01T16:18:19;7.10;75.50
1129;DHT22;553;51.038;7.216;2023-03-01T16:20:56;7.10;75.50
1129;DHT22;553;51.038;7.216;2023-03-01T16:23:23;7.10;75.20
1129;DHT22;553;51.038;7.216;2023-03-01T16:25:51;7.00;75.60
1129;DHT22;553;51.038;7.216;2023-03-01T16:28:18;7.00;75.60
1129;DHT22;553;51.038;7.216;2023-03-01T16:30:46;7.00;75.30
1129;DHT22;553;51.038;7.216;2023-03-01T16:33:15;6.90;75.40
1129;DHT22;553;51.038;7.216;2023-03-01T16:36:07;6.80;74.90
1129;DHT22;553;51.038;7.216;2023-03-01T16:38:34;6.70;74.90
1129;DHT22;553;51.038;7.216;2023-03-01T16:41:01;6.70;74.80
1129;DHT22;553;51.038;7.216;2023-03-01T16:43:29;6.60;74.90
1129;DHT22;553;51.038;7.216;2023-03-01T16:45:56;6.60;74.60
1129;DHT22;553;51.038;7.216;2023-03-01T16:48:23;6.60;75.40
1129;DHT22;553;51.038;7.216;2023-03-01T16:50:56;6.50;75.50
1129;DHT22;553;51.038;7.216;2023-03-01T16:53:23;6.40;75.60
1129;DHT22;553;51.038;7.216;2023-03-01T16:55:54;6.30;76.10
1129;DHT22;553;51.038;7.216;2023-03-01T16:58:21;6.30;76.20
1129;DHT22;553;51.038;7.216;2023-03-01T17:00:54;6.20;75.60
1129;DHT22;553;51.038;7.216;2023-03-01T17:03:22;6.20;76.00
1129;DHT22;553;51.038;7.216;2023-03-01T17:05:49;6.10;76.00
1129;DHT22;553;51.038;7.216;2023-03-01T17:08:16;6.10;75.80
1129;DHT22;553;51.038;7.216;2023-03-01T17:10:44;6.00;75.40
1129;DHT22;553;51.038;7.216;2023-03-01T17:13:11;6.00;75.60
1129;DHT22;553;51.038;7.216;2023-03-01T17:15:41;6.00;75.50
1129;DHT22;553;51.038;7.216;2023-03-01T17:18:09;6.00;75.10
1129;DHT22;553;51.038;7.216;2023-03-01T17:20:36;6.00;75.20
1129;DHT22;553;51.038;7.216;2023-03-01T17:23:03;5.90;74.80
1129;DHT22;553;51.038;7.216;2023-03-01T17:25:29;6.00;74.60
1129;DHT22;553;51.038;7.216;2023-03-01T17:27:57;6.00;74.70
1129;DHT22;553;51.038;7.216;2023-03-01T17:30:24;6.00;74.60
1129;DHT22;553;51.038;7.216;2023-03-01T17:32:51;5.90;74.80
1129;DHT22;553;51.038;7.216;2023-03-01T17:35:21;5.90;74.80
1129;DHT22;553;51.038;7.216;2023-03-01T17:37:48;5.80;75.00
1129;DHT22;553;51.038;7.216;2023-03-01T17:40:15;5.80;75.00
1129;DHT22;553;51.038;7.216;2023-03-01T17:42:41;5.80;75.30
1129;DHT22;553;51.038;7.216;2023-03-01T17:45:08;5.70;75.50
1129;DHT22;553;51.038;7.216;2023-03-01T17:47:35;5.60;75.60
1129;DHT22;553;51.038;7.216;2023-03-01T17:50:02;5.50;76.10
1129;DHT22;553;51.038;7.216;2023-03-01T17:52:31;5.50;76.30
1129;DHT22;553;51.038;7.216;2023-03-01T17:54:57;5.40;76.50
1129;DHT22;553;51.038;7.216;2023-03-01T17:57:24;5.40;76.50
1129;DHT22;553;51.038;7.216;2023-03-01T17:59:51;5.40;76.90
1129;DHT22;553;51.038;7.216;2023-03-01T18:02:17;5.30;76.70
1129;DHT22;553;51.038;7.216;2023-03-01T18:04:45;5.20;77.20
1129;DHT22;553;51.038;7.216;2023-03-01T18:07:13;5.10;77.40
1129;DHT22;553;51.038;7.216;2023-03-01T18:09:39;5.00;77.60
1129;DHT22;553;51.038;7.216;2023-03-01T18:12:06;5.00;78.00
1129;DHT22;553;51.038;7.216;2023-03-01T18:14:33;4.90;77.90
1129;DHT22;553;51.038;7.216;2023-03-01T18:17:00;4.90;78.20
1129;DHT22;553;51.038;7.216;2023-03-01T18:19:32;4.80;78.30
1129;DHT22;553;51.038;7.216;2023-03-01T18:21:58;4.80;78.50
1129;DHT22;553;51.038;7.216;2023-03-01T18:24:25;4.80;78.70
1129;DHT22;553;51.038;7.216;2023-03-01T18:26:52;4.70;78.80
1129;DHT22;553;51.038;7.216;2023-03-01T18:29:18;4.70;79.10
1129;DHT22;553;51.038;7.216;2023-03-01T18:31:45;4.70;79.30
1129;DHT22;553;51.038;7.216;2023-03-01T18:34:12;4.70;79.10
1129;DHT22;553;51.038;7.216;2023-03-01T18:36:39;4.70;79.40
1129;DHT22;553;51.038;7.216;2023-03-01T18:39:09;4.70;79.40
1129;DHT22;553;51.038;7.216;2023-03-01T18:41:37;4.70;79.30
1129;DHT22;553;51.038;7.216;2023-03-01T18:44:04;4.70;79.40
1129;DHT22;553;51.038;7.216;2023-03-01T18:46:31;4.70;79.70
1129;DHT22;553;51.038;7.216;2023-03-01T18:49:02;4.60;79.90
1129;DHT22;553;51.038;7.216;2023-03-01T18:51:29;4.60;79.90
1129;DHT22;553;51.038;7.216;2023-03-01T18:53:57;4.70;79.70
1129;DHT22;553;51.038;7.216;2023-03-01T18:56:25;4.60;79.60
1129;DHT22;553;51.038;7.216;2023-03-01T18:58:52;4.50;79.70
1129;DHT22;553;51.038;7.216;2023-03-01T19:01:23;4.40;80.00
1129;DHT22;553;51.038;7.216;2023-03-01T19:03:51;4.40;80.00
1129;DHT22;553;51.038;7.216;2023-03-01T19:06:19;4.40;79.90
1129;DHT22;553;51.038;7.216;2023-03-01T19:08:46;4.40;79.50